Time;durP1;ratioP1;P1;durP2;ratioP2;P2;SDS_P1;SDS_P2;PMS_P1;PMS_P2;Temp;Humidity;BMP_temperature;BMP_pressure;BME280_temperature;BME280_humidity;BME280_pressure;Samples;Min_cycle;Max_cycle;Signal;HPM_P1;HPM_P2
2022/06/12 00:02:19;;;;;;;4.73;2.30;;;;;;;16.46;76.87;101461.22;6029592;28;20038;-67
2022/06/12 00:05:16;;;;;;;4.67;2.27;;;;;;;16.87;75.23;101451.38;6028553;28;20061;-67
2022/06/12 00:08:12;;;;;;;7.07;3.00;;;;;;;17.23;74.13;101458.84;6027490;28;20054;-67
2022/06/12 00:11:10;;;;;;;5.65;2.33;;;;;;;16.93;73.60;101459.56;6027586;28;20042;-67
2022/06/12 00:14:06;;;;;;;7.07;3.38;;;;;;;16.62;74.88;101458.56;6028637;28;20042;-67
2022/06/12 00:17:02;;;;;;;6.07;2.63;;;;;;;16.54;75.86;101463.94;6026190;28;20112;-67
2022/06/12 00:19:57;;;;;;;6.10;2.75;;;;;;;16.49;75.95;101463.56;6028919;28;20030;-67
2022/06/12 00:22:54;;;;;;;7.17;3.10;;;;;;;16.88;74.95;101463.75;6029365;28;20113;-67
2022/06/12 00:25:49;;;;;;;6.47;3.05;;;;;;;16.92;74.26;101455.22;6027853;28;20285;-67
2022/06/12 00:28:45;;;;;;;5.93;2.93;;;;;;;17.06;74.64;101461.75;6028556;28;20038;-67
2022/06/12 00:31:45;;;;;;;6.47;2.80;;;;;;;16.95;74.13;101462.09;6026972;28;20084;-67
2022/06/12 00:34:48;;;;;;;7.50;2.92;;;;;;;16.58;75.80;101457.22;6030019;28;20282;-67
2022/06/12 00:37:43;;;;;;;7.78;2.80;;;;;;;16.94;74.67;101471.13;6015971;28;20066;-67
2022/06/12 00:40:39;;;;;;;8.45;3.08;;;;;;;16.69;75.62;101470.28;6028006;28;20042;-67
2022/06/12 00:43:35;;;;;;;6.67;2.87;;;;;;;16.35;76.61;101481.09;6024498;28;20046;-67
2022/06/12 00:47:01;;;;;;;6.68;2.80;;;;;;;16.07;78.92;101469.00;6024297;28;20282;-67
2022/06/12 00:50:08;;;;;;;;;;;;;;;16.00;79.14;101476.84;6020749;28;20070;-67
2022/06/12 00:53:03;;;;;;;5.07;2.90;;;;;;;15.83;79.19;101468.91;6025998;28;19920;-67
2022/06/12 00:56:11;;;;;;;5.80;2.60;;;;;;;16.00;79.14;101468.81;6030629;28;20027;-67
2022/06/12 00:59:11;;;;;;;6.22;2.75;;;;;;;15.81;79.14;101473.59;6027928;28;20486;-67
2022/06/12 01:02:09;;;;;;;8.25;3.50;;;;;;;15.86;79.28;101484.63;6025854;28;20034;-67
2022/06/12 01:08:23;;;;;;;7.50;2.95;;;;;;;16.07;80.47;101471.66;6028090;28;20031;-67
2022/06/12 01:11:22;;;;;;;6.43;3.00;;;;;;;16.38;77.76;101470.06;6025577;28;20066;-67
2022/06/12 01:14:25;;;;;;;7.30;2.92;;;;;;;16.70;77.88;101469.28;6027481;28;20041;-67
2022/06/12 01:17:22;;;;;;;7.65;2.55;;;;;;;16.35;77.49;101470.41;6025275;28;20096;-67
2022/06/12 01:20:20;;;;;;;6.13;2.60;;;;;;;16.27;78.30;101466.88;6024107;28;20069;-67
2022/06/12 01:24:10;;;;;;;7.43;2.60;;;;;;;15.83;79.90;101484.97;6020989;28;20045;-66
2022/06/12 01:27:29;;;;;;;6.50;2.85;;;;;;;15.72;80.72;101477.22;6003232;28;20615;-67
2022/06/12 01:30:37;;;;;;;8.07;2.58;;;;;;;16.00;80.00;101482.19;6041535;28;20038;-66
2022/06/12 01:33:40;;;;;;;4.93;2.80;;;;;;;15.97;79.27;101487.88;6042026;28;20041;-66
2022/06/12 01:36:48;;;;;;;7.82;3.00;;;;;;;15.99;79.68;101479.66;6025666;28;20038;-67
2022/06/12 01:39:52;;;;;;;6.80;3.85;;;;;;;15.90;78.52;101475.28;6026327;28;20454;-66
2022/06/12 01:42:52;;;;;;;11.60;3.60;;;;;;;15.73;78.66;101473.56;6025236;28;20138;-66
2022/06/12 01:46:08;;;;;;;6.88;2.95;;;;;;;15.88;78.22;101478.13;6023275;28;20105;-66
2022/06/12 01:49:30;;;;;;;6.82;2.83;;;;;;;15.61;78.96;101475.66;6026770;28;20030;-66
2022/06/12 01:52:59;;;;;;;6.90;3.00;;;;;;;15.48;79.15;101477.94;6023719;28;20046;-66
2022/06/12 01:55:57;;;;;;;9.93;3.20;;;;;;;15.04;81.18;101482.47;6022402;28;20047;-66
2022/06/12 01:59:15;;;;;;;5.93;2.85;;;;;;;14.81;83.26;101481.31;6018985;28;20125;-67
2022/06/12 02:02:21;;;;;;;12.05;3.58;;;;;;;14.69;83.72;101474.50;6024305;28;20097;-66
2022/06/12 02:05:33;;;;;;;7.90;3.15;;;;;;;14.62;84.21;101471.59;6035766;28;20045;-66
2022/06/12 02:08:34;;;;;;;9.10;3.03;;;;;;;14.87;83.11;101475.31;6024141;28;20038;-67
2022/06/12 02:15:22;;;;;;;7.30;3.15;;;;;;;14.66;82.66;101462.31;5920090;29;20083;-67
2022/06/12 02:18:26;;;;;;;7.18;3.00;;;;;;;14.44;82.89;101456.59;5930437;29;20047;-66
2022/06/12 02:21:33;;;;;;;12.73;3.63;;;;;;;14.17;84.29;101468.13;6025880;28;20084;-66
2022/06/12 02:24:42;;;;;;;10.80;3.50;;;;;;;14.07;84.83;101462.03;6024720;28;20045;-66
2022/06/12 02:27:50;;;;;;;6.82;2.97;;;;;;;13.94;84.78;101475.72;6025642;28;20109;-66
2022/06/12 02:30:53;;;;;;;8.10;3.47;;;;;;;13.82;85.90;101466.25;6023766;28;20045;-66
2022/06/12 02:33:54;;;;;;;12.32;3.70;;;;;;;13.72;86.06;101466.28;6044448;28;20045;-66
2022/06/12 02:36:52;;;;;;;12.45;4.03;;;;;;;13.83;85.39;101470.59;6024646;28;20477;-67
2022/06/12 02:39:56;;;;;;;7.75;3.40;;;;;;;13.84;85.39;101472.25;6022300;28;20027;-66
2022/06/12 02:42:52;;;;;;;6.63;3.15;;;;;;;13.97;84.89;101475.41;6029197;28;20044;-67
2022/06/12 02:45:54;;;;;;;9.10;3.50;;;;;;;13.97;84.43;101472.75;6049644;28;20030;-67
2022/06/12 02:48:50;;;;;;;9.35;3.50;;;;;;;14.26;83.35;101469.91;6030180;28;20402;-67
2022/06/12 02:52:03;;;;;;;9.50;3.60;;;;;;;14.02;84.93;101475.81;6017054;28;20053;-66
2022/06/12 02:55:07;;;;;;;9.32;3.70;;;;;;;13.98;85.06;101476.25;6035400;28;20037;-66
2022/06/12 02:58:28;;;;;;;12.95;3.38;;;;;;;13.87;85.57;101476.47;6016679;28;20117;-66
2022/06/12 03:01:32;;;;;;;14.88;4.07;;;;;;;13.73;86.81;101477.78;6023326;28;20413;-66
2022/06/12 03:04:45;;;;;;;10.90;4.22;;;;;;;14.16;84.25;101479.78;6026075;28;20058;-67
2022/06/12 03:07:40;;;;;;;12.10;3.90;;;;;;;13.64;85.92;101473.38;6022504;28;20114;-67
2022/06/12 03:11:02;;;;;;;12.93;3.73;;;;;;;13.67;85.21;101470.38;6025204;28;20050;-67
2022/06/12 03:13:58;;;;;;;11.32;3.80;;;;;;;13.46;86.11;101475.09;6020028;28;20053;-66
2022/06/12 03:16:53;;;;;;;10.73;3.33;;;;;;;13.54;87.34;101473.38;6025108;28;20474;-66
2022/06/12 03:19:52;;;;;;;8.10;3.50;;;;;;;13.77;85.83;101463.19;6025757;28;20038;-67
2022/06/12 03:23:02;;;;;;;12.32;3.83;;;;;;;13.84;86.37;101471.41;6013525;28;20054;-67
2022/06/12 03:25:57;;;;;;;14.15;3.80;;;;;;;13.91;84.25;101476.03;6024544;28;20036;-67
2022/06/12 03:28:58;;;;;;;11.57;4.00;;;;;;;13.51;85.51;101479.00;6016834;28;20038;-67
2022/06/12 03:32:14;;;;;;;9.07;3.75;;;;;;;13.91;85.88;101481.38;6013150;28;20641;-67
2022/06/12 03:35:26;;;;;;;10.93;3.75;;;;;;;13.86;86.30;101480.94;6024629;28;20538;-66
2022/06/12 03:38:35;;;;;;;9.95;4.03;;;;;;;13.88;84.43;101491.47;6026767;28;20100;-66
2022/06/12 03:41:45;;;;;;;11.02;3.70;;;;;;;13.75;85.36;101483.84;6021910;28;20057;-67
2022/06/12 03:44:58;;;;;;;8.95;3.70;;;;;;;13.78;84.89;101496.03;6027690;28;20038;-66
2022/06/12 03:48:12;;;;;;;9.80;3.63;;;;;;;13.60;85.93;101504.78;6031849;28;20030;-67
2022/06/12 03:51:13;;;;;;;16.33;4.20;;;;;;;13.47;86.54;101493.63;6027211;28;20440;-66
2022/06/12 03:54:25;;;;;;;10.38;3.60;;;;;;;13.39;87.42;101495.31;6028266;28;20113;-66
2022/06/12 04:00:48;;;;;;;11.02;3.65;;;;;;;13.80;85.25;101505.56;6024772;28;20516;-67
2022/06/12 04:03:45;;;;;;;13.07;4.07;;;;;;;13.56;85.38;101503.38;6029399;28;20034;-67
2022/06/12 04:06:40;;;;;;;12.82;3.53;;;;;;;13.85;85.10;101505.94;6027911;28;20038;-66
2022/06/12 04:09:42;;;;;;;8.90;3.65;;;;;;;13.79;85.81;101511.03;6027281;28;20037;-67
2022/06/12 04:12:37;;;;;;;9.30;3.58;;;;;;;14.29;83.26;101491.78;6049347;28;20065;-66
2022/06/12 04:15:41;;;;;;;7.95;3.50;;;;;;;14.30;82.76;101509.47;6028366;28;20039;-66
2022/06/12 04:18:36;;;;;;;10.85;3.92;;;;;;;14.47;82.58;101499.84;6027636;28;20065;-67
2022/06/12 04:21:36;;;;;;;11.57;4.07;;;;;;;14.49;81.45;101494.34;6013562;28;20034;-67
2022/06/12 04:24:46;;;;;;;9.40;3.45;;;;;;;14.73;81.73;101497.25;6019993;28;20395;-67
2022/06/12 04:27:42;;;;;;;10.88;3.47;;;;;;;14.95;80.52;101488.75;6030355;28;20041;-66
2022/06/12 04:30:39;;;;;;;11.73;3.78;;;;;;;15.14;79.58;101504.56;6031172;28;20081;-67
2022/06/12 04:33:56;;;;;;;11.75;3.90;;;;;;;15.44;78.04;101501.44;6025549;28;20038;-67
2022/06/12 04:36:56;;;;;;;12.57;3.33;;;;;;;15.85;76.03;101491.81;6026623;28;20038;-67
2022/06/12 04:39:52;;;;;;;9.90;3.30;;;;;;;16.06;75.54;101502.94;6046279;28;20045;-67
2022/06/12 04:42:48;;;;;;;11.02;3.55;;;;;;;16.38;74.50;101507.56;6026958;28;20061;-67
2022/06/12 04:45:44;;;;;;;14.20;3.60;;;;;;;16.76;72.22;101494.56;6027289;28;20393;-67
2022/06/12 04:48:42;;;;;;;10.43;3.50;;;;;;;17.04;72.17;101482.53;6028443;28;20041;-67
2022/06/12 04:51:37;;;;;;;9.02;3.22;;;;;;;17.35;71.05;101487.97;6026846;28;20040;-67
2022/06/12 04:54:34;;;;;;;7.63;3.23;;;;;;;18.24;66.60;101483.13;6025853;28;20394;-67
2022/06/12 04:57:29;;;;;;;10.68;3.47;;;;;;;18.26;67.91;101486.50;6027381;28;20026;-67
2022/06/12 05:00:25;;;;;;;8.95;3.47;;;;;;;18.82;64.79;101488.81;6027015;28;20045;-67
2022/06/12 05:03:20;;;;;;;11.10;3.70;;;;;;;18.69;65.12;101482.34;6027321;28;20041;-67
2022/06/12 05:06:16;;;;;;;8.65;2.95;;;;;;;18.26;66.12;101479.25;6018396;28;20624;-67
2022/06/12 05:09:13;;;;;;;10.80;3.33;;;;;;;17.88;67.31;101479.31;6030610;28;20041;-67
2022/06/12 05:12:10;;;;;;;9.90;3.40;;;;;;;17.90;67.18;101483.47;6018278;28;20417;-67
2022/06/12 05:15:07;;;;;;;10.27;3.05;;;;;;;17.66;68.75;101483.59;6026995;28;20046;-66
2022/06/12 05:18:02;;;;;;;9.55;3.25;;;;;;;17.64;69.88;101481.06;6027719;28;20027;-67
2022/06/12 05:20:57;;;;;;;13.43;3.38;;;;;;;17.56;70.07;101483.75;6026776;28;20034;-67
2022/06/12 05:23:54;;;;;;;8.35;3.00;;;;;;;17.90;68.44;101488.00;6026365;28;20038;-67
2022/06/12 05:26:50;;;;;;;9.70;2.97;;;;;;;18.08;67.75;101491.25;6026965;28;20027;-67
2022/06/12 05:29:46;;;;;;;8.95;3.03;;;;;;;17.76;69.62;101485.06;6024045;28;20036;-66
2022/06/12 05:32:42;;;;;;;12.60;3.63;;;;;;;17.56;69.81;101478.41;6037693;28;20034;-67
2022/06/12 05:35:38;;;;;;;10.55;2.92;;;;;;;17.91;67.87;101487.00;6038645;28;20037;-67
2022/06/12 05:38:35;;;;;;;11.90;3.10;;;;;;;18.13;67.63;101475.47;6026481;28;20053;-67
2022/06/12 05:41:31;;;;;;;7.25;2.80;;;;;;;18.75;66.28;101470.91;6025161;28;20062;-67
2022/06/12 05:44:26;;;;;;;8.98;3.05;;;;;;;19.54;63.02;101473.81;6032643;28;20041;-67
2022/06/12 05:47:22;;;;;;;14.03;3.53;;;;;;;19.43;63.43;101476.16;6026159;28;20070;-67
2022/06/12 05:50:18;;;;;;;8.88;3.22;;;;;;;19.89;60.95;101472.22;6016012;28;20407;-67
2022/06/12 05:53:14;;;;;;;7.18;2.90;;;;;;;20.51;60.13;101475.25;6022227;28;20100;-67
2022/06/12 05:56:15;;;;;;;12.27;3.53;;;;;;;20.81;59.17;101484.03;6031769;28;20060;-67
2022/06/12 05:59:10;;;;;;;11.07;3.50;;;;;;;20.72;60.03;101475.25;6026438;28;20054;-67
2022/06/12 06:02:06;;;;;;;10.00;3.33;;;;;;;21.27;57.00;101471.78;6023472;28;20038;-67
2022/06/12 06:05:02;;;;;;;10.40;2.95;;;;;;;21.70;57.85;101477.00;6016381;28;20398;-67
2022/06/12 06:07:57;;;;;;;7.05;2.90;;;;;;;22.30;54.93;101471.66;6027810;28;20105;-67
2022/06/12 06:10:52;;;;;;;8.10;3.08;;;;;;;22.34;54.47;101466.69;6025742;28;20038;-67
2022/06/12 06:13:48;;;;;;;9.10;2.97;;;;;;;22.44;52.33;101467.97;6018659;28;20473;-67
2022/06/12 06:16:44;;;;;;;8.60;3.30;;;;;;;21.16;56.56;101472.31;6019775;28;20030;-67
2022/06/12 06:19:39;;;;;;;14.13;3.60;;;;;;;21.91;55.54;101479.63;6019349;28;20274;-67
2022/06/12 06:22:35;;;;;;;9.23;3.27;;;;;;;21.79;55.45;101476.66;6022072;28;20041;-67
2022/06/12 06:25:31;;;;;;;10.10;3.23;;;;;;;22.52;54.00;101480.44;6024608;28;20281;-67
2022/06/12 06:28:27;;;;;;;11.70;3.67;;;;;;;22.18;54.35;101477.84;6025403;28;20030;-67
2022/06/12 06:31:22;;;;;;;11.65;3.40;;;;;;;22.28;53.81;101476.44;6025504;28;20065;-68
2022/06/12 06:34:18;;;;;;;13.80;3.67;;;;;;;21.83;53.79;101482.47;6019868;28;20191;-67
2022/06/12 06:37:13;;;;;;;9.77;3.60;;;;;;;21.32;55.94;101480.09;6026028;28;20042;-67
2022/06/12 06:40:11;;;;;;;11.52;3.38;;;;;;;21.48;56.64;101492.47;6026252;28;20045;-67
2022/06/12 06:43:08;;;;;;;14.02;3.60;;;;;;;22.01;55.59;101490.06;6027078;28;20042;-67
2022/06/12 06:46:15;;;;;;;10.85;3.33;;;;;;;22.04;55.88;101482.38;6025369;28;20034;-67
2022/06/12 06:49:10;;;;;;;11.23;3.70;;;;;;;22.20;56.37;101482.03;6026041;28;20042;-67
2022/06/12 06:52:06;;;;;;;11.47;4.13;;;;;;;22.28;54.34;101489.97;6025241;28;20039;-67
2022/06/12 06:55:02;;;;;;;11.20;3.40;;;;;;;22.45;55.02;101482.28;6025823;28;20273;-67
2022/06/12 06:57:58;;;;;;;11.00;3.53;;;;;;;22.78;51.13;101490.50;6025366;28;20529;-67
2022/06/12 07:00:53;;;;;;;9.18;3.00;;;;;;;22.33;53.61;101479.38;6021305;28;20037;-67
2022/06/12 07:03:52;;;;;;;15.00;3.50;;;;;;;23.37;51.80;101490.50;6031182;28;20441;-67
2022/06/12 07:06:48;;;;;;;13.30;3.67;;;;;;;23.63;51.47;101479.63;6024709;28;20478;-67
2022/06/12 07:09:43;;;;;;;12.18;3.35;;;;;;;23.61;50.81;101476.31;6025258;28;20029;-67
2022/06/12 07:12:39;;;;;;;13.03;3.47;;;;;;;23.82;48.67;101467.06;6015928;28;20081;-67
2022/06/12 07:15:35;;;;;;;13.73;3.63;;;;;;;23.43;51.27;101473.41;6026202;28;20034;-67
2022/06/12 07:18:30;;;;;;;11.40;3.40;;;;;;;23.66;49.12;101476.50;6035978;28;20100;-67
2022/06/12 07:21:26;;;;;;;7.83;2.83;;;;;;;23.54;48.57;101470.88;6029421;28;20486;-67
2022/06/12 07:24:21;;;;;;;12.85;3.25;;;;;;;24.35;46.66;101473.91;6020609;28;20719;-67
2022/06/12 07:27:16;;;;;;;9.77;2.75;;;;;;;23.78;48.30;101479.38;6029302;28;20039;-67
2022/06/12 07:30:15;;;;;;;10.10;2.50;;;;;;;23.28;46.90;101468.22;6028318;28;20510;-67
2022/06/12 07:33:11;;;;;;;11.63;2.75;;;;;;;23.63;46.53;101466.91;6024820;28;20300;-66
2022/06/12 07:36:08;;;;;;;5.63;1.97;;;;;;;23.00;44.24;101475.72;6022572;28;20046;-67
2022/06/12 07:39:06;;;;;;;5.90;1.90;;;;;;;23.57;42.03;101465.06;6041221;28;20257;-67
2022/06/12 07:42:02;;;;;;;9.63;2.38;;;;;;;23.29;42.83;101469.06;6020231;28;20030;-67
2022/06/12 07:44:58;;;;;;;8.23;1.70;;;;;;;23.74;41.56;101475.41;6039050;28;20038;-67
2022/06/12 07:47:53;;;;;;;6.60;1.93;;;;;;;23.57;42.91;101462.34;6028317;28;20053;-67
2022/06/12 07:50:49;;;;;;;11.00;2.03;;;;;;;23.52;43.34;101481.09;6024218;28;20434;-67
2022/06/12 07:53:45;;;;;;;9.30;1.90;;;;;;;23.78;41.45;101474.78;6023559;28;20084;-67
2022/06/12 07:56:41;;;;;;;8.85;1.80;;;;;;;23.52;41.83;101477.56;6029995;28;20030;-66
2022/06/12 07:59:36;;;;;;;6.90;1.85;;;;;;;23.27;43.26;101485.50;6027618;28;20490;-67
2022/06/12 08:02:32;;;;;;;7.33;1.90;;;;;;;23.35;43.23;101481.72;6027398;28;20030;-66
2022/06/12 08:05:27;;;;;;;8.18;2.42;;;;;;;23.08;43.85;101483.63;6029397;28;20431;-67
2022/06/12 08:08:23;;;;;;;7.80;2.10;;;;;;;23.08;43.73;101491.75;6028980;28;20038;-67
2022/06/12 08:11:21;;;;;;;8.10;1.90;;;;;;;22.77;44.77;101491.53;6028831;28;20117;-67
2022/06/12 08:14:18;;;;;;;8.55;2.20;;;;;;;22.79;46.02;101489.47;6028610;28;20048;-67
2022/06/12 08:17:13;;;;;;;11.40;2.42;;;;;;;23.13;44.25;101489.25;6027283;28;20045;-67
2022/06/12 08:20:25;;;;;;;5.33;1.77;;;;;;;22.91;45.06;101495.94;6022051;28;20042;-66
2022/06/12 08:23:28;;;;;;;9.52;2.15;;;;;;;23.06;45.07;101496.53;6029080;28;20293;-67
2022/06/12 08:26:27;;;;;;;6.95;2.30;;;;;;;23.02;45.57;101489.88;6027769;28;20026;-66
2022/06/12 08:29:23;;;;;;;10.80;2.70;;;;;;;23.31;44.80;101485.91;6022111;28;20458;-66
2022/06/12 08:32:21;;;;;;;9.05;2.25;;;;;;;23.45;45.05;101487.59;6028154;28;20113;-67
2022/06/12 08:35:20;;;;;;;8.82;2.08;;;;;;;23.36;43.48;101489.66;6026761;28;20108;-67
2022/06/12 08:38:16;;;;;;;8.98;2.22;;;;;;;23.26;42.90;101493.84;6046427;28;20176;-66
2022/06/12 08:41:33;;;;;;;8.73;2.42;;;;;;;23.37;43.75;101490.50;6021359;28;20434;-66
2022/06/12 08:44:31;;;;;;;8.73;2.00;;;;;;;23.62;44.44;101483.38;6027434;28;20033;-67
2022/06/12 08:47:32;;;;;;;8.65;2.42;;;;;;;23.78;44.29;101492.94;6028144;28;20030;-67
2022/06/12 08:50:29;;;;;;;9.65;2.20;;;;;;;23.49;42.48;101486.09;6027830;28;20030;-66
2022/06/12 08:53:32;;;;;;;6.78;1.73;;;;;;;23.55;43.14;101494.22;6036647;28;20040;-66
2022/06/12 08:56:36;;;;;;;10.63;2.53;;;;;;;23.96;42.14;101479.50;6028637;28;20039;-67
2022/06/12 08:59:38;;;;;;;7.22;2.03;;;;;;;23.84;43.20;101473.09;6029275;28;20119;-66
2022/06/12 09:02:36;;;;;;;6.50;1.60;;;;;;;23.94;43.00;101473.47;6046243;28;20026;-67
2022/06/12 09:05:49;;;;;;;6.00;1.85;;;;;;;24.30;42.73;101479.16;6047221;28;20034;-67
2022/06/12 09:08:52;;;;;;;10.50;2.33;;;;;;;24.11;42.53;101469.25;6031263;28;20038;-67
2022/06/12 09:11:56;;;;;;;8.38;2.20;;;;;;;23.60;42.65;101472.75;6027430;28;20116;-66
2022/06/12 09:14:55;;;;;;;7.13;2.33;;;;;;;23.31;42.99;101485.91;6026474;28;20042;-67
2022/06/12 09:18:04;;;;;;;6.15;1.80;;;;;;;23.40;43.33;101463.03;6016893;28;20474;-67
2022/06/12 09:21:17;;;;;;;8.88;2.15;;;;;;;22.88;44.89;101469.28;6027223;28;20072;-66
2022/06/12 09:24:17;;;;;;;;;;;;;;;23.32;43.15;101466.72;6028160;28;20035;-67
2022/06/12 09:27:43;;;;;;;9.38;1.58;;;;;;;23.65;43.55;101472.94;6042095;28;19944;-67
2022/06/12 09:30:48;;;;;;;6.88;1.95;;;;;;;23.61;41.99;101463.59;6025268;28;20121;-66
2022/06/12 09:34:01;;;;;;;9.07;1.83;;;;;;;23.51;41.42;101476.72;6027123;28;20077;-66
2022/06/12 09:38:18;;;;;;;6.75;1.85;;;;;;;23.77;41.12;101465.00;6027278;28;20023;-68
2022/06/12 09:40:33;;;;;;;7.38;1.65;;;;;;;24.71;39.22;101451.53;6035212;28;20552;-67
2022/06/12 09:43:40;;;;;;;9.88;2.03;;;;;;;24.45;41.11;101452.59;6026969;28;20038;-67
2022/06/12 09:47:07;;;;;;;7.38;1.80;;;;;;;25.09;38.36;101459.59;6027342;28;20026;-68
2022/06/12 09:50:17;;;;;;;6.00;1.90;;;;;;;25.32;36.50;101455.22;6025594;28;20041;-67
2022/06/12 09:53:30;;;;;;;6.88;1.70;;;;;;;24.82;39.72;101443.56;6025567;28;20057;-67
2022/06/12 09:56:48;;;;;;;7.18;2.13;;;;;;;25.04;40.68;101435.00;6023659;28;20030;-67
2022/06/12 10:00:06;;;;;;;6.18;1.80;;;;;;;24.45;39.36;101444.44;6025682;28;20034;-67
2022/06/12 10:03:21;;;;;;;5.00;1.88;;;;;;;24.82;38.47;101450.88;6022937;28;20060;-67
2022/06/12 10:06:30;;;;;;;5.80;1.70;;;;;;;25.00;37.16;101441.97;6034255;28;20042;-67
2022/06/12 10:09:29;;;;;;;5.40;1.90;;;;;;;25.09;39.61;101437.88;6025897;28;20525;-67
2022/06/12 10:12:30;;;;;;;6.85;2.00;;;;;;;24.89;38.27;101426.41;6023974;28;20041;-67
2022/06/12 10:15:32;;;;;;;7.03;1.83;;;;;;;24.36;37.42;101421.34;6031694;28;20466;-66
2022/06/12 10:18:40;;;;;;;6.88;1.92;;;;;;;24.55;38.18;101414.94;6020010;28;20031;-66
2022/06/12 10:21:38;;;;;;;5.93;1.90;;;;;;;24.75;37.68;101412.91;6024267;28;20026;-67
2022/06/12 10:24:33;;;;;;;7.35;1.77;;;;;;;25.05;37.01;101409.53;6015235;28;20367;-67
2022/06/12 10:27:48;;;;;;;5.37;1.47;;;;;;;25.76;35.49;101413.34;6025534;28;20054;-67
2022/06/12 10:30:46;;;;;;;4.88;1.45;;;;;;;25.96;34.58;101408.47;6024733;28;20034;-67
2022/06/12 10:33:41;;;;;;;9.20;1.90;;;;;;;25.45;36.04;101408.06;6024077;28;20552;-67
2022/06/12 10:36:37;;;;;;;6.32;1.73;;;;;;;24.36;36.68;101413.22;6026063;28;20045;-66
2022/06/12 10:39:32;;;;;;;6.47;1.60;;;;;;;24.09;38.55;101407.13;6021044;28;20057;-67
2022/06/12 10:42:31;;;;;;;6.85;1.52;;;;;;;24.55;38.49;101398.66;6024660;28;20100;-67
2022/06/12 10:45:30;;;;;;;5.53;1.75;;;;;;;24.71;36.09;101408.13;6018902;28;20128;-67
2022/06/12 10:48:29;;;;;;;7.45;1.77;;;;;;;25.16;35.48;101397.94;6024805;28;20136;-67
2022/06/12 10:51:45;;;;;;;5.47;1.48;;;;;;;25.61;35.99;101396.59;6028338;28;20109;-67
2022/06/12 10:54:41;;;;;;;5.80;1.50;;;;;;;25.91;31.65;101383.88;6032255;28;20038;-67
2022/06/12 10:57:51;;;;;;;5.70;1.45;;;;;;;25.51;32.91;101384.63;6033662;28;20038;-67
2022/06/12 11:00:47;;;;;;;6.68;1.50;;;;;;;25.25;35.69;101380.28;6031081;28;20077;-67
2022/06/12 11:04:01;;;;;;;3.60;1.40;;;;;;;24.75;36.35;101382.22;6029191;28;20045;-66
2022/06/12 11:07:19;;;;;;;4.50;1.70;;;;;;;24.83;37.60;101385.53;6029686;28;20056;-67
2022/06/12 11:10:32;;;;;;;7.63;1.30;;;;;;;25.42;35.79;101384.06;6022006;28;20468;-66
2022/06/12 11:14:05;;;;;;;6.05;1.48;;;;;;;25.51;34.17;101371.03;6032321;28;20282;-67
2022/06/12 11:17:16;;;;;;;6.03;1.63;;;;;;;25.06;35.57;101378.63;6029183;28;20493;-67
2022/06/12 11:20:30;;;;;;;5.15;1.75;;;;;;;25.35;34.64;101375.16;6031200;28;20042;-67
2022/06/12 11:23:31;;;;;;;4.95;1.52;;;;;;;25.83;32.58;101359.72;6033545;28;20038;-67
2022/06/12 11:26:33;;;;;;;6.57;1.67;;;;;;;25.48;34.40;101360.63;6032007;28;20038;-67
2022/06/12 11:29:35;;;;;;;6.15;1.70;;;;;;;25.20;36.71;101364.66;6032943;28;20065;-67
2022/06/12 11:33:13;;;;;;;6.35;2.03;;;;;;;24.61;36.97;101357.09;6032671;28;20042;-67
2022/06/12 11:36:47;;;;;;;4.60;1.58;;;;;;;24.80;35.74;101353.41;6017114;28;20058;-68
2022/06/12 11:39:55;;;;;;;5.22;1.45;;;;;;;25.42;36.99;101363.16;6045688;28;20042;-67
2022/06/12 11:42:54;;;;;;;5.45;1.80;;;;;;;25.45;34.63;101348.28;6027005;28;20056;-67
2022/06/12 11:46:12;;;;;;;6.68;1.90;;;;;;;25.57;34.22;101338.34;6033424;28;20039;-67
2022/06/12 11:49:26;;;;;;;5.68;1.40;;;;;;;25.55;35.98;101345.09;6030892;28;20038;-67
2022/06/12 11:52:50;;;;;;;5.13;1.50;;;;;;;25.26;35.40;101346.66;6031056;28;20030;-67
2022/06/12 11:56:07;;;;;;;5.07;1.40;;;;;;;25.98;33.32;101345.72;6031113;28;20058;-68
2022/06/12 11:59:11;;;;;;;5.38;1.58;;;;;;;26.57;32.41;101348.34;6032946;28;20061;-67
2022/06/12 12:02:18;;;;;;;5.90;1.60;;;;;;;26.77;33.52;101337.09;6029268;28;20050;-67
2022/06/12 12:05:35;;;;;;;5.90;1.88;;;;;;;25.81;34.33;101334.69;6027940;28;20038;-67
2022/06/12 12:09:21;;;;;;;5.00;1.20;;;;;;;25.65;34.94;101340.75;6028590;28;20045;-67
2022/06/12 12:12:21;;;;;;;4.88;1.70;;;;;;;26.12;35.27;101327.31;6014657;28;20046;-67
2022/06/12 12:15:20;;;;;;;8.20;1.70;;;;;;;25.83;34.60;101331.72;6021963;28;20069;-67
2022/06/12 12:18:21;;;;;;;5.00;1.73;;;;;;;25.69;35.36;101331.06;6023828;28;20034;-67
2022/06/12 12:21:40;;;;;;;8.93;1.75;;;;;;;26.33;32.78;101322.19;6025927;28;20129;-68
2022/06/12 12:24:42;;;;;;;4.97;1.50;;;;;;;27.05;33.26;101317.34;6027756;28;20105;-68
2022/06/12 12:27:44;;;;;;;4.75;1.50;;;;;;;26.90;32.49;101306.13;6040686;28;20037;-68
2022/06/12 12:30:41;;;;;;;3.88;1.60;;;;;;;26.75;33.25;101312.00;6015684;28;20466;-67
2022/06/12 12:33:38;;;;;;;5.30;1.50;;;;;;;26.30;33.93;101317.22;6040304;28;20030;-67
2022/06/12 12:43:09;;;;;;;6.93;1.70;;;;;;;26.60;34.46;101306.22;6029110;28;20046;-67
2022/06/12 12:46:06;;;;;;;5.23;1.43;;;;;;;25.56;33.99;101314.13;6027806;28;20031;-67
2022/06/12 12:49:01;;;;;;;6.43;1.60;;;;;;;25.54;33.24;101306.22;6026288;28;20034;-67
2022/06/12 12:52:09;;;;;;;5.40;1.83;;;;;;;25.17;34.79;101307.25;6032787;28;20097;-66
2022/06/12 12:55:05;;;;;;;4.65;1.20;;;;;;;25.35;34.12;101301.84;6015997;28;20058;-67
2022/06/12 12:58:12;;;;;;;4.38;1.55;;;;;;;25.62;34.86;101303.16;6025246;28;20125;-67
2022/06/12 13:01:26;;;;;;;6.55;1.48;;;;;;;25.69;35.86;101309.34;6027477;28;20106;-66
2022/06/12 13:04:33;;;;;;;6.70;1.80;;;;;;;25.76;35.42;101311.97;6028226;28;20080;-67
2022/06/12 13:07:43;;;;;;;6.82;2.35;;;;;;;25.56;35.10;101303.25;6026965;28;20030;-66
2022/06/12 13:11:01;;;;;;;5.78;1.85;;;;;;;26.21;34.34;101317.78;6026200;28;20034;-67
2022/06/12 13:14:10;;;;;;;5.28;1.60;;;;;;;26.57;33.32;101302.09;6037319;28;20031;-66
2022/06/12 13:17:25;;;;;;;4.30;1.35;;;;;;;27.51;32.30;101286.44;6032629;28;20034;-67
2022/06/12 13:20:32;;;;;;;3.92;1.75;;;;;;;27.15;31.29;101293.06;6002655;28;20503;-67
2022/06/12 13:23:48;;;;;;;6.47;1.98;;;;;;;26.72;31.61;101293.44;6024205;28;20044;-67
2022/06/12 13:26:44;;;;;;;5.57;1.73;;;;;;;27.06;32.41;101283.59;6025595;28;20050;-66
2022/06/12 13:29:43;;;;;;;5.70;1.40;;;;;;;27.06;31.50;101278.16;6021089;28;20470;-67
2022/06/12 13:32:39;;;;;;;5.45;1.83;;;;;;;27.41;33.25;101286.25;6026719;28;20269;-67
2022/06/12 13:35:45;;;;;;;4.10;1.53;;;;;;;27.35;31.67;101276.28;6027448;28;20414;-67
2022/06/12 13:38:58;;;;;;;6.93;1.83;;;;;;;26.95;30.83;101276.28;6024264;28;20481;-67
2022/06/12 13:42:03;;;;;;;4.68;1.42;;;;;;;27.15;29.57;101265.81;6019331;28;20479;-67
2022/06/12 13:44:59;;;;;;;5.32;1.85;;;;;;;27.35;32.16;101270.81;6040363;28;20042;-67
2022/06/12 13:47:54;;;;;;;9.52;1.63;;;;;;;27.24;30.55;101263.50;6020742;28;20053;-67
2022/06/12 13:50:55;;;;;;;5.90;1.40;;;;;;;27.23;30.02;101250.97;6019258;28;20034;-67
2022/06/12 13:53:59;;;;;;;5.22;1.27;;;;;;;27.30;30.55;101251.66;6025317;28;20038;-66
2022/06/12 13:57:04;;;;;;;3.90;1.17;;;;;;;27.71;30.03;101260.38;6026983;28;20536;-67
2022/06/12 14:00:25;;;;;;;6.38;1.40;;;;;;;27.22;29.20;101260.22;6030434;28;20038;-67
2022/06/12 14:03:37;;;;;;;5.38;1.50;;;;;;;27.10;30.38;101258.34;6026794;28;20423;-67
2022/06/12 14:06:37;;;;;;;3.38;1.25;;;;;;;27.05;30.30;101258.25;6026522;28;20057;-66
2022/06/12 14:09:34;;;;;;;4.85;1.30;;;;;;;27.06;28.90;101257.19;6025611;28;20030;-67
2022/06/12 14:12:33;;;;;;;2.95;1.02;;;;;;;26.49;31.92;101255.34;6024707;28;20042;-67
2022/06/12 14:15:35;;;;;;;3.03;1.05;;;;;;;26.59;31.04;101258.31;6026955;28;20100;-67
2022/06/12 14:18:30;;;;;;;5.28;1.23;;;;;;;27.24;30.12;101252.63;6026460;28;20494;-66
2022/06/12 14:21:39;;;;;;;3.58;1.10;;;;;;;27.52;29.67;101260.84;6025789;28;20154;-67
2022/06/12 14:24:35;;;;;;;3.75;1.35;;;;;;;27.49;30.25;101258.59;6026581;28;20038;-67
2022/06/12 14:27:34;;;;;;;2.40;1.20;;;;;;;27.74;29.68;101237.25;6025354;28;20042;-67